Time;durP1;ratioP1;P1;durP2;ratioP2;P2;SDS_P1;SDS_P2;PMS_P1;PMS_P2;Temp;Humidity;BMP_temperature;BMP_pressure;BME280_temperature;BME280_humidity;BME280_pressure;Samples;Min_cycle;Max_cycle;Signal;HPM_P1;HPM_P2
2023/10/04 00:02:09;;;;;;;7.70;3.13;;;;;;;13.27;93.93;101486.88;7393236;19;20368;-61
2023/10/04 00:04:38;;;;;;;6.88;3.22;;;;;;;13.25;94.01;101487.03;7398069;19;20356;-61
2023/10/04 00:07:07;;;;;;;8.30;3.65;;;;;;;13.25;93.88;101488.88;7398389;19;20731;-61
2023/10/04 00:09:34;;;;;;;7.00;3.05;;;;;;;13.24;93.85;101479.25;7398331;19;20384;-61
2023/10/04 00:12:02;;;;;;;8.75;3.80;;;;;;;13.24;94.04;101480.06;7399474;19;20463;-61
2023/10/04 00:14:29;;;;;;;8.98;3.78;;;;;;;13.23;94.02;101485.56;7399644;19;20964;-62
2023/10/04 00:16:56;;;;;;;8.68;3.45;;;;;;;13.23;94.04;101477.56;7398632;19;20414;-61
2023/10/04 00:19:22;;;;;;;8.25;3.47;;;;;;;13.24;93.76;101479.25;7397775;19;20353;-60
2023/10/04 00:21:50;;;;;;;8.93;3.55;;;;;;;13.24;93.53;101473.91;7398213;19;20681;-61
2023/10/04 00:24:18;;;;;;;7.38;3.50;;;;;;;13.19;93.59;101482.41;7398043;19;20363;-60
2023/10/04 00:26:45;;;;;;;10.48;3.58;;;;;;;13.21;93.52;101484.91;7397375;19;20359;-60
2023/10/04 00:29:12;;;;;;;8.57;3.70;;;;;;;13.19;93.45;101478.91;7398110;19;20484;-62
2023/10/04 00:31:40;;;;;;;6.80;3.60;;;;;;;13.17;93.29;101476.41;7396136;19;20669;-61
2023/10/04 00:34:08;;;;;;;6.95;3.55;;;;;;;13.19;93.03;101486.91;7398608;19;20710;-62
2023/10/04 00:36:37;;;;;;;9.02;3.90;;;;;;;13.17;93.01;101478.25;7396597;19;20891;-61
2023/10/04 00:39:06;;;;;;;7.32;3.75;;;;;;;13.18;92.91;101486.09;7397887;19;20393;-61
2023/10/04 00:41:34;;;;;;;8.57;3.90;;;;;;;13.16;92.80;101493.41;7394306;19;20427;-62
2023/10/04 00:44:02;;;;;;;8.50;3.60;;;;;;;13.17;92.68;101483.59;7398914;19;20364;-61
2023/10/04 00:46:33;;;;;;;9.27;3.72;;;;;;;13.18;92.69;101485.25;7397488;19;20365;-61
2023/10/04 00:49:00;;;;;;;7.50;4.07;;;;;;;13.15;92.59;101475.75;7398779;19;20352;-62
2023/10/04 00:51:35;;;;;;;8.63;4.33;;;;;;;13.12;92.69;101476.13;7393758;19;20674;-61
2023/10/04 00:54:12;;;;;;;7.07;3.97;;;;;;;13.13;92.51;101487.59;7394345;19;20383;-61
2023/10/04 00:56:41;;;;;;;7.30;4.00;;;;;;;13.11;92.51;101487.78;7396218;19;20389;-61
2023/10/04 00:59:09;;;;;;;9.18;4.35;;;;;;;13.13;92.21;101476.94;7396655;19;20868;-58
2023/10/04 01:01:40;;;;;;;8.13;4.03;;;;;;;13.15;92.16;101477.59;7397904;19;20364;-60
2023/10/04 01:04:07;;;;;;;7.45;3.97;;;;;;;13.12;92.06;101476.13;7396892;19;20368;-61
2023/10/04 01:06:35;;;;;;;8.00;4.13;;;;;;;13.13;91.93;101487.59;7395671;19;20377;-60
2023/10/04 01:09:05;;;;;;;8.68;3.95;;;;;;;13.10;91.99;101470.13;7396058;19;20343;-61
2023/10/04 01:11:35;;;;;;;8.48;3.88;;;;;;;13.11;92.00;101479.78;7394149;19;20367;-62
2023/10/04 01:14:18;;;;;;;8.15;4.18;;;;;;;13.12;91.78;101480.63;7396106;19;20485;-62
2023/10/04 01:16:45;;;;;;;8.00;3.95;;;;;;;13.09;91.98;101470.28;7396133;19;20351;-61
2023/10/04 01:19:15;;;;;;;9.45;3.80;;;;;;;13.11;91.80;101465.63;7396018;19;20417;-60
2023/10/04 01:21:42;;;;;;;6.93;3.40;;;;;;;13.10;91.63;101467.47;7396489;19;20378;-60
2023/10/04 01:24:09;;;;;;;8.38;3.47;;;;;;;13.05;91.72;101478.63;7396029;19;20358;-61
2023/10/04 01:26:37;;;;;;;7.00;3.37;;;;;;;13.05;91.54;101472.50;7397047;19;20368;-60
2023/10/04 01:29:11;;;;;;;7.20;3.25;;;;;;;13.05;91.38;101465.31;7398214;19;20361;-60
2023/10/04 01:31:38;;;;;;;7.57;3.53;;;;;;;13.07;91.30;101465.16;7392492;19;20349;-61
2023/10/04 01:34:06;;;;;;;7.70;3.40;;;;;;;13.05;91.35;101465.31;7394939;19;20384;-60
2023/10/04 01:36:36;;;;;;;8.47;3.33;;;;;;;13.06;91.21;101469.63;7394469;19;20413;-60
2023/10/04 01:39:20;;;;;;;7.82;3.33;;;;;;;13.08;91.16;101477.47;7396659;19;20707;-61
2023/10/04 01:41:47;;;;;;;6.18;3.10;;;;;;;13.06;91.11;101485.63;7393423;19;20385;-60
2023/10/04 01:44:15;;;;;;;6.23;3.23;;;;;;;13.11;91.09;101473.63;7396607;19;20348;-61
2023/10/04 01:46:43;;;;;;;7.75;3.40;;;;;;;13.09;90.88;101483.59;7396582;19;20907;-61
2023/10/04 01:49:10;;;;;;;8.25;3.15;;;;;;;13.13;90.78;101491.09;7396416;19;20368;-61
2023/10/04 01:51:41;;;;;;;6.43;3.38;;;;;;;13.15;90.78;101481.09;7393767;19;20776;-61
2023/10/04 01:54:09;;;;;;;6.88;3.25;;;;;;;13.16;90.63;101479.28;7393993;19;20796;-61
2023/10/04 01:56:37;;;;;;;8.38;3.13;;;;;;;13.16;90.53;101488.09;7394296;19;20381;-60
2023/10/04 01:59:05;;;;;;;10.57;3.15;;;;;;;13.19;90.44;101492.25;7394006;19;20348;-62
2023/10/04 02:01:32;;;;;;;6.50;2.97;;;;;;;13.21;90.33;101498.22;7393566;19;20901;-60
2023/10/04 02:04:05;;;;;;;7.68;3.50;;;;;;;13.22;90.27;101498.06;7396535;19;20687;-61
2023/10/04 02:06:33;;;;;;;6.72;2.95;;;;;;;13.24;90.14;101509.38;7391467;19;20375;-61
2023/10/04 02:09:00;;;;;;;7.20;2.90;;;;;;;13.29;90.01;101498.22;7390070;19;20403;-61
2023/10/04 02:11:27;;;;;;;6.63;2.83;;;;;;;13.33;89.70;101501.38;7389524;19;20750;-61
2023/10/04 02:13:55;;;;;;;7.57;2.72;;;;;;;13.39;89.53;101493.53;7394724;19;20672;-60
2023/10/04 02:16:23;;;;;;;6.00;2.70;;;;;;;13.44;89.38;101488.50;7390686;19;20464;-62
2023/10/04 02:18:52;;;;;;;5.43;2.65;;;;;;;13.45;89.23;101491.97;7391748;19;20368;-60
2023/10/04 02:21:19;;;;;;;8.60;2.60;;;;;;;13.51;89.01;101479.78;7392717;19;20372;-60
2023/10/04 02:23:46;;;;;;;7.70;2.60;;;;;;;13.56;88.99;101480.13;7394637;19;20911;-60
2023/10/04 02:26:13;;;;;;;8.38;2.83;;;;;;;13.60;88.81;101484.06;7390833;19;20368;-61
2023/10/04 02:28:40;;;;;;;7.10;2.97;;;;;;;13.62;88.57;101484.72;7393520;19;20336;-61
2023/10/04 02:31:07;;;;;;;6.43;2.67;;;;;;;13.64;88.53;101502.22;7394073;19;20860;-61
2023/10/04 02:33:34;;;;;;;11.65;3.20;;;;;;;13.68;88.19;101500.03;7389121;19;20352;-60
2023/10/04 02:36:04;;;;;;;5.97;2.35;;;;;;;13.70;88.20;101495.34;7390863;19;20348;-61
2023/10/04 02:38:36;;;;;;;7.17;2.43;;;;;;;13.69;87.85;101501.69;7392621;19;20400;-61
2023/10/04 02:41:10;;;;;;;6.65;2.50;;;;;;;13.70;88.12;101507.84;7388982;19;20356;-61
2023/10/04 02:43:37;;;;;;;7.22;2.90;;;;;;;13.67;87.80;101517.03;7392486;19;20411;-60
2023/10/04 02:46:04;;;;;;;6.88;2.72;;;;;;;13.69;87.92;101509.69;7386352;19;20368;-61
2023/10/04 02:48:32;;;;;;;7.63;2.53;;;;;;;13.70;87.75;101516.69;7390336;19;20360;-61
2023/10/04 02:50:59;;;;;;;6.47;2.50;;;;;;;13.71;87.63;101513.03;7391313;19;20348;-61
2023/10/04 02:53:27;;;;;;;7.45;3.03;;;;;;;13.72;87.74;101513.84;7392217;19;20364;-61
2023/10/04 02:55:54;;;;;;;8.13;2.90;;;;;;;13.76;87.93;101513.31;7392810;19;20388;-60
2023/10/04 02:58:25;;;;;;;7.97;3.05;;;;;;;13.77;87.62;101507.00;7392915;19;20360;-60
2023/10/04 03:00:53;;;;;;;8.23;3.07;;;;;;;13.80;87.52;101513.78;7391766;19;20356;-61
2023/10/04 03:03:24;;;;;;;6.90;2.70;;;;;;;13.80;87.60;101519.94;7391571;19;20368;-61
2023/10/04 03:05:59;;;;;;;8.32;3.00;;;;;;;13.80;87.36;101509.28;7391301;19;20444;-60
2023/10/04 03:08:27;;;;;;;5.80;2.60;;;;;;;13.83;87.56;101522.28;7392476;19;20891;-61
2023/10/04 03:10:55;;;;;;;5.63;2.75;;;;;;;13.82;87.34;101525.94;7389661;19;20381;-61
2023/10/04 03:13:25;;;;;;;7.97;2.80;;;;;;;13.82;87.47;101533.94;7393531;19;20375;-61
2023/10/04 03:15:57;;;;;;;7.35;2.92;;;;;;;13.82;87.66;101525.94;7391230;19;20880;-60
2023/10/04 03:18:25;;;;;;;8.70;3.13;;;;;;;13.82;87.46;101525.94;7391837;19;20373;-60
2023/10/04 03:23:32;;;;;;;8.27;2.95;;;;;;;13.82;87.48;101525.13;7391401;19;20383;-61
2023/10/04 03:26:03;;;;;;;7.97;3.30;;;;;;;13.86;87.34;101532.59;7388808;19;20466;-60
2023/10/04 03:28:36;;;;;;;5.40;2.65;;;;;;;13.84;87.56;101537.28;7390465;19;20513;-60
2023/10/04 03:31:14;;;;;;;8.23;3.15;;;;;;;13.85;87.32;101541.56;7390934;19;20359;-60
2023/10/04 03:33:45;;;;;;;7.97;3.13;;;;;;;13.83;87.55;101530.28;7390676;19;20760;-59
2023/10/04 03:36:17;;;;;;;7.32;2.97;;;;;;;13.86;87.70;101537.91;7391206;19;20432;-61
2023/10/04 03:38:49;;;;;;;9.13;3.20;;;;;;;13.85;87.65;101533.59;7397396;19;20367;-60
2023/10/04 03:41:19;;;;;;;8.77;3.20;;;;;;;13.84;87.52;101539.94;7398171;19;20344;-60
2023/10/04 03:43:47;;;;;;;7.72;3.38;;;;;;;13.86;87.53;101539.78;7398276;19;20328;-59
2023/10/04 03:46:18;;;;;;;7.03;3.10;;;;;;;13.85;87.55;101540.75;7397487;19;20343;-60
2023/10/04 03:48:51;;;;;;;7.40;3.03;;;;;;;13.83;87.65;101543.63;7396536;19;20368;-61
2023/10/04 03:51:20;;;;;;;7.25;2.92;;;;;;;13.85;87.55;101549.59;7399597;19;20903;-60
2023/10/04 03:53:50;;;;;;;9.13;3.87;;;;;;;13.85;87.55;101549.59;7394994;19;20883;-60
2023/10/04 03:56:18;;;;;;;9.05;3.90;;;;;;;13.86;87.49;101537.91;7398229;19;20380;-59
2023/10/04 03:58:48;;;;;;;8.87;3.47;;;;;;;13.83;87.31;101546.28;7398597;19;20385;-61
2023/10/04 04:01:16;;;;;;;8.20;3.37;;;;;;;13.84;87.25;101545.28;7398675;19;20352;-59
2023/10/04 04:03:44;;;;;;;7.30;3.05;;;;;;;13.85;87.33;101546.91;7395716;19;20409;-61
2023/10/04 04:06:11;;;;;;;9.13;3.72;;;;;;;13.83;87.42;101546.28;7398183;19;20353;-60
2023/10/04 04:08:39;;;;;;;7.68;3.00;;;;;;;13.82;87.45;101547.28;7400069;19;20360;-60
2023/10/04 04:11:06;;;;;;;8.10;3.15;;;;;;;13.80;87.38;101543.97;7397139;19;20369;-60
2023/10/04 04:13:36;;;;;;;6.75;2.83;;;;;;;13.74;87.44;101549.16;7396408;19;20360;-61
2023/10/04 04:16:09;;;;;;;7.47;3.25;;;;;;;13.73;87.61;101537.69;7397211;19;20372;-61
2023/10/04 04:18:38;;;;;;;9.80;3.67;;;;;;;13.80;87.33;101543.97;7397061;19;20371;-61
2023/10/04 04:21:05;;;;;;;8.50;3.25;;;;;;;13.82;87.56;101539.28;7396080;19;20358;-60
2023/10/04 04:23:34;;;;;;;7.88;3.30;;;;;;;13.79;87.27;101528.97;7399529;19;20353;-61
2023/10/04 04:26:05;;;;;;;7.63;3.00;;;;;;;13.77;87.32;101528.31;7395320;19;20372;-61
2023/10/04 04:28:36;;;;;;;7.07;3.33;;;;;;;13.77;87.43;101540.81;7397688;19;20316;-60
2023/10/04 04:31:14;;;;;;;8.25;3.10;;;;;;;13.77;87.32;101522.97;7395788;19;20771;-60
2023/10/04 04:33:43;;;;;;;8.85;3.05;;;;;;;13.76;87.41;101529.31;7394496;19;20376;-59
2023/10/04 04:36:34;;;;;;;10.05;3.42;;;;;;;13.72;87.56;101530.66;7395946;19;20373;-59
2023/10/04 04:39:05;;;;;;;7.90;3.28;;;;;;;13.72;87.78;101533.34;7395294;19;20788;-60
2023/10/04 04:41:35;;;;;;;8.38;2.95;;;;;;;13.70;87.97;101531.84;7396077;19;20332;-60
2023/10/04 04:44:07;;;;;;;8.73;3.67;;;;;;;13.70;87.89;101530.00;7394412;19;20372;-61
2023/10/04 04:46:38;;;;;;;10.63;3.45;;;;;;;13.70;88.18;101526.53;7396376;19;20711;-60
2023/10/04 04:49:06;;;;;;;8.63;3.10;;;;;;;13.67;88.34;101522.38;7398176;19;20440;-59
2023/10/04 04:51:34;;;;;;;7.97;3.10;;;;;;;13.67;88.41;101525.03;7397716;19;20376;-60
2023/10/04 04:54:01;;;;;;;10.00;3.53;;;;;;;13.65;88.39;101524.38;7393326;19;20879;-61
2023/10/04 04:56:31;;;;;;;6.75;2.70;;;;;;;13.61;88.57;101523.06;7398916;19;20375;-60
2023/10/04 04:59:07;;;;;;;7.65;3.53;;;;;;;13.60;88.80;101526.72;7398278;19;20373;-61
2023/10/04 05:01:39;;;;;;;8.43;3.30;;;;;;;13.57;88.76;101543.06;7397111;19;20352;-59
2023/10/04 05:04:07;;;;;;;9.10;3.20;;;;;;;13.58;88.84;101539.41;7397172;19;20365;-59
2023/10/04 05:06:34;;;;;;;8.23;3.30;;;;;;;13.48;89.31;101549.47;7396060;19;20752;-61
2023/10/04 05:09:01;;;;;;;7.50;3.00;;;;;;;13.45;89.46;101554.13;7398115;19;20347;-61
2023/10/04 05:11:28;;;;;;;9.10;3.05;;;;;;;13.44;89.71;101563.13;7398754;19;20361;-61
2023/10/04 05:13:56;;;;;;;10.23;3.35;;;;;;;13.41;89.73;101566.13;7398561;19;20500;-60
2023/10/04 05:16:25;;;;;;;7.57;2.97;;;;;;;13.42;89.82;101556.31;7396041;19;20393;-61
2023/10/04 05:18:53;;;;;;;7.70;2.75;;;;;;;13.36;90.01;101576.47;7397819;19;20911;-60
2023/10/04 05:21:21;;;;;;;7.65;2.90;;;;;;;13.34;90.24;101574.97;7399007;19;20348;-60
2023/10/04 05:23:48;;;;;;;6.43;3.00;;;;;;;13.35;90.30;101582.00;7398282;19;20388;-60
2023/10/04 05:26:14;;;;;;;9.15;3.40;;;;;;;13.31;90.39;101586.81;7397869;19;20369;-60
2023/10/04 05:28:41;;;;;;;10.57;3.42;;;;;;;13.30;90.56;101589.66;7399557;19;20371;-59
2023/10/04 05:31:11;;;;;;;8.37;3.37;;;;;;;13.30;90.63;101589.66;7398193;19;20406;-61
2023/10/04 05:33:38;;;;;;;9.45;3.25;;;;;;;13.28;90.76;101589.78;7398054;19;20383;-59
2023/10/04 05:36:06;;;;;;;8.80;3.47;;;;;;;13.26;91.01;101594.47;7399615;19;20424;-59
2023/10/04 05:38:34;;;;;;;9.45;3.85;;;;;;;13.26;90.86;101597.13;7399151;19;20357;-61
2023/10/04 05:41:02;;;;;;;10.45;3.63;;;;;;;13.27;91.13;101598.78;7397020;19;20367;-63
2023/10/04 05:43:30;;;;;;;10.13;3.58;;;;;;;13.27;91.24;101599.63;7395746;19;20361;-61
2023/10/04 05:45:57;;;;;;;11.07;3.88;;;;;;;13.27;91.33;101612.13;7393077;19;20683;-61
2023/10/04 05:48:26;;;;;;;11.57;3.97;;;;;;;13.27;91.33;101604.94;7395099;19;20879;-62
2023/10/04 05:50:58;;;;;;;8.73;3.73;;;;;;;13.29;91.29;101625.31;7396100;19;20357;-63
2023/10/04 05:53:26;;;;;;;9.88;4.28;;;;;;;13.32;91.11;101616.97;7394312;19;20368;-62
2023/10/04 05:55:53;;;;;;;10.73;4.00;;;;;;;13.29;91.19;101612.81;7397051;19;20367;-62
2023/10/04 05:58:21;;;;;;;9.90;4.00;;;;;;;13.29;91.22;101615.47;7396485;19;20344;-61
2023/10/04 06:00:55;;;;;;;8.45;3.80;;;;;;;13.28;91.39;101608.44;7393997;19;20393;-62
2023/10/04 06:03:23;;;;;;;8.27;3.50;;;;;;;13.27;91.39;101612.13;7398841;19;20360;-62
2023/10/04 06:05:51;;;;;;;8.93;3.85;;;;;;;13.27;91.45;101617.44;7397728;19;20454;-62
2023/10/04 06:08:19;;;;;;;11.80;3.95;;;;;;;13.23;91.61;101626.78;7398797;19;20380;-62
2023/10/04 06:10:48;;;;;;;10.68;4.03;;;;;;;13.21;91.73;101623.44;7396227;19;20372;-62
2023/10/04 06:13:17;;;;;;;12.43;5.07;;;;;;;13.20;91.79;101622.63;7395420;19;20362;-61
2023/10/04 06:15:49;;;;;;;8.18;4.30;;;;;;;13.23;91.61;101626.78;7396616;19;20352;-62
2023/10/04 06:18:16;;;;;;;8.07;4.10;;;;;;;13.22;91.72;101625.13;7397742;19;20340;-62
2023/10/04 06:20:44;;;;;;;6.80;3.35;;;;;;;13.20;91.82;101627.13;7396597;19;20357;-62
2023/10/04 06:23:14;;;;;;;10.48;4.25;;;;;;;13.19;91.94;101630.78;7397751;19;20356;-62
2023/10/04 06:25:49;;;;;;;8.55;3.50;;;;;;;13.21;92.01;101628.78;7396810;19;20387;-61
2023/10/04 06:28:17;;;;;;;9.95;3.92;;;;;;;13.22;92.04;101630.44;7396884;19;20364;-61
2023/10/04 06:30:48;;;;;;;9.18;4.03;;;;;;;13.24;91.88;101639.94;7395040;19;20361;-62
2023/10/04 06:33:17;;;;;;;8.88;3.83;;;;;;;13.28;91.88;101637.75;7396151;19;20401;-61
2023/10/04 06:35:44;;;;;;;9.52;4.13;;;;;;;13.31;91.61;101633.97;7396135;19;20368;-61
2023/10/04 06:38:13;;;;;;;11.48;4.65;;;;;;;13.34;91.78;101639.75;7396908;19;20352;-62
2023/10/04 06:40:41;;;;;;;10.23;4.37;;;;;;;13.39;91.53;101634.78;7396957;19;20373;-62
2023/10/04 06:43:09;;;;;;;10.50;3.95;;;;;;;13.44;91.38;101643.06;7396684;19;20678;-63
2023/10/04 06:45:37;;;;;;;9.52;3.80;;;;;;;13.51;90.98;101637.06;7396509;19;20362;-62
2023/10/04 06:48:05;;;;;;;8.32;3.60;;;;;;;13.59;90.73;101640.53;7397108;19;20336;-62
2023/10/04 06:50:36;;;;;;;10.88;4.65;;;;;;;13.62;90.40;101639.34;7394133;19;20394;-62
2023/10/04 06:53:04;;;;;;;8.35;4.03;;;;;;;13.71;90.48;101646.34;7394393;19;20360;-63
2023/10/04 06:55:32;;;;;;;7.47;3.78;;;;;;;13.79;89.91;101648.13;7395977;19;20352;-62
2023/10/04 06:58:00;;;;;;;11.75;3.85;;;;;;;13.86;89.83;101644.59;7396292;19;20336;-63
2023/10/04 07:00:30;;;;;;;8.93;3.83;;;;;;;13.94;89.47;101650.91;7394781;19;20360;-63
2023/10/04 07:02:59;;;;;;;9.70;3.70;;;;;;;14.05;89.19;101658.53;7389351;19;20753;-61
2023/10/04 07:05:36;;;;;;;7.67;3.50;;;;;;;14.11;88.79;101649.00;7396999;19;20367;-62
2023/10/04 07:08:05;;;;;;;12.90;4.50;;;;;;;14.17;88.58;101654.44;7393587;19;20840;-61
2023/10/04 07:10:33;;;;;;;9.50;3.80;;;;;;;14.23;88.38;101660.94;7395781;19;20761;-63
2023/10/04 07:13:02;;;;;;;11.70;3.60;;;;;;;14.27;87.71;101676.41;7394962;19;20349;-61
2023/10/04 07:15:35;;;;;;;8.00;3.30;;;;;;;14.30;87.47;101671.75;7393645;19;20352;-62
2023/10/04 07:18:06;;;;;;;9.48;3.55;;;;;;;14.38;87.43;101661.00;7395308;19;20404;-62
2023/10/04 07:20:34;;;;;;;9.77;3.22;;;;;;;14.44;86.96;101671.81;7395617;19;20359;-62
2023/10/04 07:23:07;;;;;;;10.85;3.75;;;;;;;14.54;87.07;101679.59;7392052;19;20448;-62
2023/10/04 07:25:49;;;;;;;8.75;3.05;;;;;;;14.60;87.00;101694.97;7394022;19;20367;-63
2023/10/04 07:28:17;;;;;;;7.65;3.28;;;;;;;14.66;86.50;101688.06;7395114;19;20333;-62
2023/10/04 07:30:44;;;;;;;8.15;3.20;;;;;;;14.78;86.41;101704.50;7393903;19;20437;-61
2023/10/04 07:33:11;;;;;;;6.85;2.70;;;;;;;14.82;85.55;101717.34;7393956;19;20368;-62
2023/10/04 07:35:38;;;;;;;9.00;2.97;;;;;;;14.85;85.47;101718.81;7393631;19;20385;-62
2023/10/04 07:38:05;;;;;;;7.07;2.67;;;;;;;14.86;85.07;101721.31;7393454;19;20352;-63
2023/10/04 07:40:34;;;;;;;9.32;2.97;;;;;;;14.92;85.05;101730.47;7395522;19;20952;-64
2023/10/04 07:43:01;;;;;;;7.68;3.03;;;;;;;15.01;84.68;101721.38;7394198;19;20448;-63
2023/10/04 07:45:30;;;;;;;8.75;2.95;;;;;;;15.16;84.76;101694.69;7393597;19;20356;-63
2023/10/04 07:48:00;;;;;;;11.15;2.97;;;;;;;15.16;83.76;101710.72;7395078;19;20407;-63
2023/10/04 07:50:28;;;;;;;7.78;2.70;;;;;;;15.20;83.88;101716.56;7395349;19;20356;-63
2023/10/04 07:52:59;;;;;;;9.00;3.05;;;;;;;15.24;83.48;101715.19;7393571;19;20372;-62
2023/10/04 07:55:27;;;;;;;8.40;2.50;;;;;;;15.29;83.48;101720.81;7393873;19;20682;-63
2023/10/04 07:58:02;;;;;;;6.18;2.90;;;;;;;15.33;82.92;101723.97;7394185;19;20412;-62
2023/10/04 08:00:30;;;;;;;9.30;2.92;;;;;;;15.46;82.96;101737.53;7391086;19;20402;-63
2023/10/04 08:02:57;;;;;;;8.23;2.72;;;;;;;15.46;82.31;101741.03;7394706;19;20348;-63
2023/10/04 08:05:26;;;;;;;7.35;2.60;;;;;;;15.52;81.66;101735.97;7394556;19;20349;-63
2023/10/04 08:07:55;;;;;;;7.17;2.70;;;;;;;15.52;82.05;101731.44;7393020;19;20373;-61
2023/10/04 08:10:25;;;;;;;9.60;2.60;;;;;;;15.56;81.80;101739.94;7390145;19;20432;-63
2023/10/04 08:12:54;;;;;;;9.10;2.60;;;;;;;15.64;81.50;101715.78;7392036;19;20460;-62
2023/10/04 08:15:25;;;;;;;8.57;2.78;;;;;;;15.71;81.22;101714.03;7391642;19;20436;-63
2023/10/04 08:17:58;;;;;;;7.05;2.50;;;;;;;15.74;81.04;101716.38;7392633;19;20364;-62
2023/10/04 08:20:29;;;;;;;6.80;2.72;;;;;;;15.83;80.83;101726.00;7393031;19;20329;-62
2023/10/04 08:22:57;;;;;;;6.90;2.55;;;;;;;15.94;80.17;101730.03;7394443;19;20872;-63
2023/10/04 08:25:28;;;;;;;8.82;3.08;;;;;;;16.08;79.92;101723.81;7401457;19;20365;-63
2023/10/04 08:27:56;;;;;;;9.13;3.20;;;;;;;16.16;80.54;101732.78;7401559;19;20332;-63
2023/10/04 08:30:25;;;;;;;9.07;3.08;;;;;;;16.24;79.29;101736.19;7401438;19;20365;-62
2023/10/04 08:32:53;;;;;;;8.82;2.70;;;;;;;16.36;79.04;101738.38;7400512;19;20904;-63
2023/10/04 08:35:24;;;;;;;9.43;2.70;;;;;;;16.46;78.75;101753.13;7401194;19;20352;-64
2023/10/04 08:37:53;;;;;;;8.18;2.88;;;;;;;16.62;78.48;101743.25;7400464;19;20345;-63
2023/10/04 08:40:21;;;;;;;7.80;2.60;;;;;;;16.59;77.22;101744.41;7401367;19;20412;-63
2023/10/04 08:42:51;;;;;;;7.18;2.45;;;;;;;16.65;77.31;101745.53;7400630;19;20339;-63
2023/10/04 08:45:18;;;;;;;7.10;2.70;;;;;;;16.81;77.14;101744.47;7401100;19;20457;-63
2023/10/04 08:47:50;;;;;;;8.80;2.75;;;;;;;16.84;76.94;101731.53;7400593;19;20396;-63
2023/10/04 08:50:43;;;;;;;6.72;2.75;;;;;;;16.92;76.31;101733.28;7400056;19;20356;-63
2023/10/04 08:53:40;;;;;;;7.15;2.63;;;;;;;16.88;75.98;101740.03;7398495;19;20384;-63
2023/10/04 08:56:13;;;;;;;7.05;2.55;;;;;;;16.86;75.32;101750.09;7400843;19;20347;-63
2023/10/04 08:58:42;;;;;;;7.95;2.60;;;;;;;16.85;75.83;101738.56;7400824;19;20356;-62
2023/10/04 09:01:11;;;;;;;8.55;2.78;;;;;;;16.85;74.93;101740.41;7400731;19;20943;-62
2023/10/04 09:03:42;;;;;;;9.38;2.60;;;;;;;16.84;75.32;101760.19;7392528;19;20348;-63
2023/10/04 09:06:11;;;;;;;6.83;2.70;;;;;;;16.89;76.02;101739.00;7395055;19;20349;-63
2023/10/04 09:08:40;;;;;;;9.07;3.22;;;;;;;17.06;75.67;101740.38;7398476;19;20360;-63
2023/10/04 09:11:12;;;;;;;9.18;3.05;;;;;;;17.19;74.12;101746.91;7396345;19;20353;-63
2023/10/04 09:13:43;;;;;;;8.90;3.55;;;;;;;17.25;74.21;101732.72;7396074;19;20368;-64
2023/10/04 09:16:28;;;;;;;7.15;2.95;;;;;;;17.34;73.71;101728.91;7398917;19;20354;-63
2023/10/04 09:19:07;;;;;;;8.63;3.35;;;;;;;17.43;73.84;101725.03;7395986;19;20356;-63
2023/10/04 09:21:38;;;;;;;10.20;3.47;;;;;;;17.57;73.43;101735.84;7396808;19;20360;-63
2023/10/04 09:24:14;;;;;;;8.93;3.70;;;;;;;17.58;73.02;101737.53;7397466;19;20336;-61
2023/10/04 09:26:54;;;;;;;7.88;3.17;;;;;;;17.45;71.58;101738.25;7397758;19;20372;-63
2023/10/04 09:29:35;;;;;;;6.77;2.97;;;;;;;17.57;71.63;101744.72;7397842;19;20332;-63
2023/10/04 09:32:04;;;;;;;10.27;3.08;;;;;;;17.56;72.64;101750.31;7397112;19;20345;-62
2023/10/04 09:34:33;;;;;;;7.13;2.90;;;;;;;17.52;71.44;101755.22;7395233;19;20380;-64
2023/10/04 09:37:00;;;;;;;9.80;2.85;;;;;;;17.49;71.02;101728.81;7398649;19;20349;-63
2023/10/04 09:39:31;;;;;;;8.70;2.85;;;;;;;17.44;71.28;101753.50;7397817;19;20360;-62
2023/10/04 09:42:03;;;;;;;6.63;2.40;;;;;;;17.30;72.01;101759.81;7396364;19;20372;-63
2023/10/04 09:44:31;;;;;;;9.65;2.92;;;;;;;17.10;71.73;101763.13;7395576;19;20359;-63
2023/10/04 09:47:02;;;;;;;9.73;3.00;;;;;;;17.01;72.58;101753.56;7397758;19;20332;-63
2023/10/04 09:49:32;;;;;;;10.02;3.00;;;;;;;17.04;72.17;101768.41;7396959;19;20880;-63
2023/10/04 09:52:00;;;;;;;5.82;2.50;;;;;;;17.07;72.26;101762.69;7397654;19;20717;-62
2023/10/04 09:54:28;;;;;;;7.03;2.63;;;;;;;17.17;72.47;101773.06;7396607;19;20867;-63
2023/10/04 09:56:56;;;;;;;5.75;2.00;;;;;;;17.02;71.51;101781.19;7395895;19;20381;-62
2023/10/04 09:59:24;;;;;;;5.53;2.22;;;;;;;16.91;70.84;101785.19;7396523;19;20418;-62
2023/10/04 10:01:55;;;;;;;8.93;2.55;;;;;;;16.88;71.64;101774.88;7397240;19;20356;-61
2023/10/04 10:04:33;;;;;;;9.55;2.42;;;;;;;16.83;71.92;101777.28;7396068;19;20393;-63
2023/10/04 10:07:10;;;;;;;6.78;2.50;;;;;;;16.89;72.36;101776.50;7396997;19;20693;-62
2023/10/04 10:09:51;;;;;;;6.15;2.55;;;;;;;17.07;72.66;101784.97;7396620;19;20383;-62
2023/10/04 10:12:31;;;;;;;7.00;2.53;;;;;;;17.23;71.05;101783.03;7397330;19;20340;-62
2023/10/04 10:15:04;;;;;;;8.55;2.97;;;;;;;17.41;70.57;101794.13;7390496;19;20383;-61
2023/10/04 10:17:33;;;;;;;9.00;2.80;;;;;;;17.40;70.47;101800.50;7397276;19;20367;-62
2023/10/04 10:20:02;;;;;;;9.53;3.33;;;;;;;17.38;68.55;101769.53;7396147;19;20349;-63
2023/10/04 10:22:29;;;;;;;8.05;3.08;;;;;;;17.46;69.43;101782.81;7395698;19;20923;-62
2023/10/04 10:24:55;;;;;;;7.30;2.88;;;;;;;17.61;68.45;101766.63;7395270;19;20770;-62
2023/10/04 10:27:24;;;;;;;7.45;2.63;;;;;;;17.65;69.00;101767.91;7396247;19;20855;-63
2023/10/04 10:29:52;;;;;;;6.63;2.40;;;;;;;17.60;66.98;101781.09;7397837;19;20734;-62
2023/10/04 10:32:22;;;;;;;6.38;2.60;;;;;;;17.63;66.64;101769.97;7395788;19;20462;-63
2023/10/04 10:35:00;;;;;;;6.85;2.90;;;;;;;17.71;67.50;101776.00;7392505;19;21397;-63
2023/10/04 10:37:26;;;;;;;7.80;2.78;;;;;;;17.89;68.71;101780.91;7396181;19;20427;-63
2023/10/04 10:39:56;;;;;;;7.57;3.13;;;;;;;17.94;65.80;101785.69;7395039;19;20759;-62
2023/10/04 10:42:23;;;;;;;8.70;3.30;;;;;;;17.95;66.17;101778.47;7393604;19;20353;-63
2023/10/04 10:45:29;;;;;;;7.85;3.00;;;;;;;18.01;66.89;101780.34;7395332;19;20368;-60
2023/10/04 10:47:58;;;;;;;25.67;5.35;;;;;;;18.08;66.65;101773.16;7395346;19;20368;-62
2023/10/04 10:50:33;;;;;;;8.32;2.90;;;;;;;18.08;65.35;101773.97;7395066;19;20707;-63
2023/10/04 10:53:10;;;;;;;6.63;2.90;;;;;;;18.00;64.06;101782.22;7395999;19;20887;-63
2023/10/04 10:55:41;;;;;;;11.55;3.22;;;;;;;18.01;65.32;101786.53;7392545;19;20364;-63
2023/10/04 10:58:08;;;;;;;7.30;2.58;;;;;;;17.95;63.41;101789.19;7393318;19;20855;-63
2023/10/04 11:00:35;;;;;;;7.30;2.75;;;;;;;17.93;63.49;101774.09;7394645;19;20344;-63
2023/10/04 11:03:11;;;;;;;6.13;2.40;;;;;;;17.99;64.04;101787.78;7394116;19;20399;-63
2023/10/04 11:05:40;;;;;;;8.60;3.22;;;;;;;18.16;63.16;101773.00;7394791;19;20348;-64
2023/10/04 11:08:12;;;;;;;15.07;4.43;;;;;;;18.25;63.57;101771.78;7397424;19;20360;-62
2023/10/04 11:10:41;;;;;;;7.82;2.95;;;;;;;18.28;62.79;101787.53;7394218;19;20850;-62
2023/10/04 11:13:14;;;;;;;8.30;2.72;;;;;;;18.35;62.20;101782.19;7392518;19;20393;-63
2023/10/04 11:15:41;;;;;;;11.18;3.75;;;;;;;18.44;61.05;101780.16;7392801;19;20357;-63
2023/10/04 11:18:13;;;;;;;7.53;2.92;;;;;;;18.60;61.33;101774.44;7391754;19;20369;-63
2023/10/04 11:20:40;;;;;;;8.60;3.05;;;;;;;18.68;60.60;101787.69;7393509;19;20775;-63
2023/10/04 11:23:07;;;;;;;8.43;3.13;;;;;;;18.56;59.52;101783.91;7395454;19;20376;-63
2023/10/04 11:25:36;;;;;;;8.57;3.17;;;;;;;18.58;60.35;101773.78;7396443;19;20395;-63
2023/10/04 11:28:03;;;;;;;10.05;3.47;;;;;;;18.65;59.90;101788.06;7396452;19;20345;-64
2023/10/04 11:30:33;;;;;;;6.90;2.97;;;;;;;18.87;59.82;101761.06;7393787;19;20351;-61
2023/10/04 11:33:00;;;;;;;9.40;3.10;;;;;;;19.01;58.52;101760.06;7394905;19;20360;-61
2023/10/04 11:35:32;;;;;;;6.75;2.80;;;;;;;19.12;58.39;101754.06;7392714;19;20686;-61
2023/10/04 11:38:05;;;;;;;7.50;2.67;;;;;;;19.02;58.63;101764.44;7394939;19;20360;-61
2023/10/04 11:40:32;;;;;;;7.28;3.10;;;;;;;19.14;57.28;101765.44;7393573;19;20389;-61